createdAt,value
2023-05-05T00:02:00.400Z,11.52
2023-05-05T00:04:33.332Z,12.30
2023-05-05T00:07:06.286Z,10.90
2023-05-05T00:09:39.188Z,11.25
2023-05-05T00:12:12.173Z,11.45
2023-05-05T00:14:46.415Z,11.95
2023-05-05T00:17:19.452Z,11.80
2023-05-05T00:19:52.385Z,12.82
2023-05-05T00:22:25.273Z,13.07
2023-05-05T00:24:58.155Z,13.03
2023-05-05T00:27:31.038Z,11.17
2023-05-05T00:30:06.276Z,11.73
2023-05-05T00:32:39.610Z,12.80
2023-05-05T00:35:12.458Z,10.80
2023-05-05T00:37:45.348Z,11.73
2023-05-05T00:40:18.722Z,10.60
2023-05-05T00:42:51.716Z,10.25
2023-05-05T00:45:26.184Z,9.88
2023-05-05T00:48:01.219Z,10.68
2023-05-05T00:50:34.796Z,10.38
2023-05-05T00:53:08.018Z,11.77
2023-05-05T00:55:41.586Z,10.77
2023-05-05T00:58:15.768Z,9.88
2023-05-05T01:00:50.578Z,11.10
2023-05-05T01:03:23.745Z,10.55
2023-05-05T01:06:11.206Z,11.32
2023-05-05T01:08:56.713Z,11.70
2023-05-05T01:11:36.603Z,11.40
2023-05-05T01:14:14.746Z,11.48
2023-05-05T01:16:59.124Z,11.75
2023-05-05T01:20:01.991Z,11.98
2023-05-05T01:22:40.625Z,11.93
2023-05-05T01:25:36.957Z,10.93
2023-05-05T01:28:25.462Z,10.98
2023-05-05T01:31:22.716Z,12.20
2023-05-05T01:34:01.705Z,11.13
2023-05-05T01:36:39.142Z,11.75
2023-05-05T01:39:16.877Z,10.90
2023-05-05T01:41:56.551Z,11.88
2023-05-05T01:44:31.625Z,11.15
2023-05-05T01:47:06.260Z,12.55
2023-05-05T01:49:41.903Z,11.88
2023-05-05T01:52:16.489Z,11.43
2023-05-05T01:54:51.102Z,11.63
2023-05-05T01:57:26.487Z,11.10
2023-05-05T02:00:01.100Z,10.98
2023-05-05T02:02:36.769Z,10.95
2023-05-05T02:05:12.547Z,10.93
2023-05-05T02:07:46.764Z,11.60
2023-05-05T02:10:20.103Z,11.77
2023-05-05T02:12:54.190Z,11.50
2023-05-05T02:15:29.832Z,11.07
2023-05-05T02:18:06.879Z,11.55
2023-05-05T02:20:42.502Z,11.00
2023-05-05T02:23:16.552Z,11.02
2023-05-05T02:25:54.323Z,10.83
2023-05-05T02:28:43.858Z,10.18
2023-05-05T02:31:18.943Z,10.60
2023-05-05T02:33:54.508Z,10.20
2023-05-05T02:36:33.698Z,10.45
2023-05-05T02:39:14.551Z,9.60
2023-05-05T02:41:50.383Z,10.63
2023-05-05T02:44:32.645Z,10.60
2023-05-05T02:47:05.760Z,11.35
2023-05-05T02:49:39.030Z,11.38
2023-05-05T02:52:13.381Z,12.32
2023-05-05T02:54:48.401Z,11.02
2023-05-05T02:57:32.628Z,11.82
2023-05-05T03:00:11.825Z,10.70
2023-05-05T03:02:47.976Z,11.02
2023-05-05T03:05:26.174Z,11.27
2023-05-05T03:08:04.606Z,10.35
2023-05-05T03:10:47.386Z,10.07
2023-05-05T03:13:22.642Z,10.75
2023-05-05T03:15:58.008Z,11.15
2023-05-05T03:18:34.304Z,10.27
2023-05-05T03:21:09.117Z,9.73
2023-05-05T03:23:46.499Z,10.10
2023-05-05T03:26:25.493Z,9.60
2023-05-05T03:28:58.349Z,9.68
2023-05-05T03:31:34.885Z,9.88
2023-05-05T03:34:08.574Z,10.10
2023-05-05T03:36:47.772Z,9.63
2023-05-05T03:39:23.552Z,10.52
2023-05-05T03:41:57.010Z,10.07
2023-05-05T03:44:32.330Z,9.95
2023-05-05T03:47:05.397Z,9.82
2023-05-05T03:49:41.163Z,9.73
2023-05-05T03:52:15.157Z,10.48
2023-05-05T03:54:50.444Z,9.90
2023-05-05T03:57:24.464Z,9.77
2023-05-05T03:59:57.415Z,10.43
2023-05-05T04:02:30.437Z,9.68
2023-05-05T04:05:03.595Z,9.32
2023-05-05T04:07:36.556Z,12.18
2023-05-05T04:10:11.856Z,10.52
2023-05-05T04:12:46.666Z,10.18
2023-05-05T04:15:19.665Z,9.18
2023-05-05T04:17:52.767Z,10.23
2023-05-05T04:20:25.626Z,9.80
2023-05-05T04:22:58.633Z,9.93
2023-05-05T04:25:32.889Z,10.55
2023-05-05T04:28:06.315Z,9.57
2023-05-05T04:30:39.214Z,9.40
2023-05-05T04:33:12.517Z,9.45
2023-05-05T04:35:45.465Z,8.60
2023-05-05T04:38:19.459Z,9.95
2023-05-05T04:40:54.271Z,9.70
2023-05-05T04:43:27.513Z,8.70
2023-05-05T04:46:00.347Z,9.43
2023-05-05T04:48:37.946Z,9.00
2023-05-05T04:51:11.119Z,9.73
2023-05-05T04:53:44.045Z,9.05
2023-05-05T04:56:18.249Z,8.70
2023-05-05T04:58:51.501Z,9.38
2023-05-05T05:01:24.368Z,9.75
2023-05-05T05:03:57.337Z,9.47
2023-05-05T05:06:30.499Z,9.20
2023-05-05T05:09:03.569Z,10.07
2023-05-05T05:11:37.860Z,9.85
2023-05-05T05:14:10.958Z,8.48
2023-05-05T05:16:44.191Z,8.73
2023-05-05T05:19:17.364Z,8.57
2023-05-05T05:21:50.282Z,8.98
2023-05-05T05:24:23.136Z,9.15
2023-05-05T05:26:57.548Z,9.10
2023-05-05T05:29:30.592Z,9.52
2023-05-05T05:32:06.586Z,9.57
2023-05-05T05:34:39.805Z,9.27
2023-05-05T05:37:14.695Z,9.15
2023-05-05T05:39:52.520Z,9.38
2023-05-05T05:42:28.194Z,10.32
2023-05-05T05:45:01.768Z,10.95
2023-05-05T05:47:35.316Z,9.05
2023-05-05T05:50:09.352Z,9.93
2023-05-05T05:52:42.537Z,8.77
2023-05-05T05:55:16.252Z,8.65
2023-05-05T05:57:50.753Z,8.05
2023-05-05T06:00:23.901Z,7.70
2023-05-05T06:03:03.974Z,8.18
2023-05-05T06:05:40.149Z,8.25
2023-05-05T06:08:13.378Z,7.85
2023-05-05T06:10:51.489Z,7.45
2023-05-05T06:13:27.596Z,6.78
2023-05-05T06:16:01.101Z,7.63
2023-05-05T06:18:34.431Z,7.55
2023-05-05T06:21:07.729Z,6.40
2023-05-05T06:23:40.604Z,6.38
2023-05-05T06:26:13.733Z,6.78
2023-05-05T06:28:48.016Z,6.25
2023-05-05T06:31:21.121Z,7.53
2023-05-05T06:33:54.142Z,6.38
2023-05-05T06:36:28.123Z,6.90
2023-05-05T06:39:01.000Z,7.75
2023-05-05T06:41:33.839Z,6.47
2023-05-05T06:44:08.552Z,6.78
2023-05-05T06:46:43.588Z,6.05
2023-05-05T06:49:16.552Z,6.13
2023-05-05T06:51:49.569Z,5.55
2023-05-05T06:54:24.431Z,6.28
2023-05-05T06:56:59.459Z,7.45
2023-05-05T06:59:33.914Z,6.85
2023-05-05T07:02:07.332Z,6.68
2023-05-05T07:04:41.528Z,6.53
2023-05-05T07:07:14.412Z,6.38
2023-05-05T07:09:48.781Z,6.32
2023-05-05T07:12:21.914Z,7.07
2023-05-05T07:14:56.334Z,6.35
2023-05-05T07:17:29.183Z,6.57
2023-05-05T07:20:02.020Z,9.85
2023-05-05T07:22:34.889Z,6.47
2023-05-05T07:25:09.063Z,6.68
2023-05-05T07:27:42.006Z,6.72
2023-05-05T07:30:18.843Z,6.00
2023-05-05T07:32:52.673Z,5.90
2023-05-05T07:35:26.408Z,5.60
2023-05-05T07:37:59.448Z,5.53
2023-05-05T07:40:33.858Z,4.68
2023-05-05T07:43:07.066Z,5.38
2023-05-05T07:45:41.484Z,5.82
2023-05-05T07:48:14.371Z,5.57
2023-05-05T07:50:47.297Z,4.90
2023-05-05T07:53:20.205Z,5.40
2023-05-05T07:55:53.100Z,4.88
2023-05-05T07:58:26.110Z,4.43
2023-05-05T08:01:01.353Z,4.85
2023-05-05T08:03:34.410Z,5.53
2023-05-05T08:06:09.562Z,5.75
2023-05-05T08:08:43.057Z,5.15
2023-05-05T08:11:16.557Z,3.78
2023-05-05T08:13:49.801Z,4.30
2023-05-05T08:18:57.177Z,4.53
2023-05-05T08:21:30.059Z,3.95
2023-05-05T08:24:03.111Z,5.18
2023-05-05T08:26:35.965Z,4.07
2023-05-05T08:29:09.047Z,4.78
2023-05-05T08:34:16.046Z,4.18
2023-05-05T08:36:50.410Z,4.60
2023-05-05T08:39:23.440Z,3.60
2023-05-05T08:44:29.368Z,3.07
2023-05-05T08:49:43.889Z,2.47
2023-05-05T08:52:19.482Z,3.28
2023-05-05T08:54:58.263Z,3.05
2023-05-05T08:57:40.732Z,2.78
2023-05-05T09:00:15.250Z,3.80
2023-05-05T09:02:50.178Z,3.13
2023-05-05T09:05:23.698Z,2.90
2023-05-05T09:07:56.615Z,3.10
2023-05-05T09:10:30.194Z,3.20
2023-05-05T09:13:05.421Z,3.33
2023-05-05T09:15:39.050Z,2.83
2023-05-05T09:18:13.682Z,3.17
2023-05-05T09:20:46.685Z,3.00
2023-05-05T09:23:21.114Z,3.15
2023-05-05T09:26:05.460Z,3.30
2023-05-05T09:28:38.542Z,2.80
2023-05-05T09:31:16.176Z,2.60
2023-05-05T09:33:51.053Z,2.60
2023-05-05T09:36:43.031Z,2.80
2023-05-05T09:39:17.957Z,2.90
2023-05-05T09:41:50.990Z,3.03
2023-05-05T09:44:34.794Z,3.03
2023-05-05T09:47:18.130Z,3.05
2023-05-05T09:50:00.292Z,3.38
2023-05-05T09:52:33.266Z,4.18
2023-05-05T09:55:07.012Z,4.10
2023-05-05T09:57:39.994Z,4.47
2023-05-05T10:00:14.695Z,4.28
2023-05-05T10:02:47.747Z,4.18
2023-05-05T10:05:22.320Z,4.28
2023-05-05T10:07:55.322Z,4.45
2023-05-05T10:10:29.088Z,4.80
2023-05-05T10:13:02.745Z,4.35
2023-05-05T10:15:35.769Z,3.95
2023-05-05T10:18:08.919Z,4.47
2023-05-05T10:20:44.303Z,4.45
2023-05-05T10:23:20.555Z,4.30
2023-05-05T10:26:00.671Z,4.60
2023-05-05T10:28:35.206Z,5.35
2023-05-05T10:31:25.251Z,4.88
2023-05-05T10:34:04.833Z,4.30
2023-05-05T10:36:40.053Z,4.38
2023-05-05T10:39:16.232Z,4.30
2023-05-05T10:41:49.467Z,4.20
2023-05-05T10:44:22.890Z,4.30
2023-05-05T10:46:55.841Z,4.18
2023-05-05T10:49:38.854Z,4.35
2023-05-05T10:52:22.145Z,4.03
2023-05-05T10:55:04.028Z,4.10
2023-05-05T10:57:41.637Z,4.32
2023-05-05T11:00:51.369Z,4.38
2023-05-05T11:03:24.640Z,3.92
2023-05-05T11:06:18.274Z,4.50
2023-05-05T11:08:52.962Z,6.85
2023-05-05T11:12:04.593Z,4.18
2023-05-05T11:14:37.469Z,4.90
2023-05-05T11:17:45.882Z,4.60
2023-05-05T11:20:18.782Z,4.70
2023-05-05T11:23:24.395Z,4.35
2023-05-05T11:25:59.393Z,3.83
2023-05-05T11:28:32.808Z,4.40
2023-05-05T11:31:19.921Z,4.40
2023-05-05T11:33:53.060Z,4.53
2023-05-05T11:36:40.773Z,4.18
2023-05-05T11:39:24.810Z,4.05
2023-05-05T11:42:24.468Z,4.43
2023-05-05T11:44:57.734Z,4.88
2023-05-05T11:47:34.119Z,4.22
2023-05-05T11:50:18.523Z,4.03
2023-05-05T11:52:51.416Z,4.00
2023-05-05T11:55:24.307Z,3.92
2023-05-05T11:57:58.506Z,4.32
2023-05-05T12:00:35.174Z,4.05
2023-05-05T12:03:08.817Z,3.75
2023-05-05T12:05:42.225Z,4.43
2023-05-05T12:08:15.461Z,4.70
2023-05-05T12:13:22.447Z,4.22
2023-05-05T12:15:55.623Z,4.07
2023-05-05T12:21:01.438Z,3.90
2023-05-05T12:23:39.091Z,4.80
2023-05-05T12:26:26.373Z,3.65
2023-05-05T12:29:01.728Z,3.90
2023-05-05T12:31:36.198Z,3.58
2023-05-05T12:34:11.214Z,4.13
2023-05-05T12:36:44.575Z,3.63
2023-05-05T12:39:17.558Z,4.10
2023-05-05T12:41:50.989Z,3.80
2023-05-05T12:44:25.195Z,3.50
2023-05-05T12:46:59.273Z,3.95
2023-05-05T12:49:34.118Z,3.42
2023-05-05T12:52:07.944Z,19.73
2023-05-05T12:54:54.843Z,3.40
2023-05-05T12:57:28.071Z,3.30
2023-05-05T13:00:13.831Z,4.35
2023-05-05T13:02:46.792Z,5.03
2023-05-05T13:05:30.660Z,3.67
2023-05-05T13:08:03.582Z,4.20
2023-05-05T13:10:37.354Z,3.42
2023-05-05T13:13:10.419Z,3.85
2023-05-05T13:15:44.882Z,3.35
2023-05-05T13:18:17.757Z,3.60
2023-05-05T13:20:50.754Z,3.80
2023-05-05T13:23:24.663Z,3.50
2023-05-05T13:25:58.653Z,3.55
2023-05-05T13:28:31.675Z,3.40
2023-05-05T13:31:06.119Z,3.40
2023-05-05T13:33:38.943Z,3.65
2023-05-05T13:36:11.872Z,3.38
2023-05-05T13:38:44.765Z,3.35
2023-05-05T13:41:17.710Z,3.63
2023-05-05T13:43:51.344Z,3.55
2023-05-05T13:46:25.554Z,3.20
2023-05-05T13:48:58.595Z,3.33
2023-05-05T13:51:31.474Z,3.50
2023-05-05T13:54:04.668Z,2.80
2023-05-05T13:56:37.793Z,4.00
2023-05-05T13:59:10.730Z,5.30
2023-05-05T14:01:44.943Z,3.00
2023-05-05T14:04:17.845Z,3.50
2023-05-05T14:06:50.745Z,3.60
2023-05-05T14:09:23.908Z,3.30
2023-05-05T14:11:56.893Z,3.40
2023-05-05T14:14:30.471Z,3.55
2023-05-05T14:17:04.927Z,3.10
2023-05-05T14:19:37.826Z,3.17
2023-05-05T14:22:10.998Z,3.20
2023-05-05T14:24:43.887Z,3.95
2023-05-05T14:27:16.995Z,3.30
2023-05-05T14:29:49.902Z,3.53
2023-05-05T14:32:24.130Z,3.92
2023-05-05T14:34:57.353Z,3.28
2023-05-05T14:37:30.261Z,3.55
2023-05-05T14:40:05.529Z,3.45
2023-05-05T14:42:38.774Z,3.72
2023-05-05T14:45:12.640Z,3.30
2023-05-05T14:47:46.896Z,3.20
2023-05-05T14:50:20.048Z,2.90
2023-05-05T14:52:53.079Z,3.58
2023-05-05T14:55:26.077Z,3.80
2023-05-05T14:57:58.947Z,3.33
2023-05-05T15:00:31.796Z,3.33
2023-05-05T15:03:06.071Z,3.55
2023-05-05T15:05:39.052Z,3.28
2023-05-05T15:08:12.533Z,3.47
2023-05-05T15:13:18.436Z,2.88
2023-05-05T15:15:51.525Z,2.80
2023-05-05T15:18:26.031Z,3.00
2023-05-05T15:20:58.976Z,3.53
2023-05-05T15:23:31.939Z,3.45
2023-05-05T15:26:04.905Z,2.70
2023-05-05T15:28:37.958Z,5.60
2023-05-05T15:31:11.049Z,4.10
2023-05-05T15:33:48.489Z,4.32
2023-05-05T15:36:22.767Z,3.40
2023-05-05T15:38:55.838Z,3.03
2023-05-05T15:41:29.653Z,3.13
2023-05-05T15:44:03.285Z,2.88
2023-05-05T15:46:36.222Z,3.75
2023-05-05T15:49:10.729Z,3.53
2023-05-05T15:51:43.565Z,3.55
2023-05-05T15:54:16.463Z,3.05
2023-05-05T15:56:49.359Z,3.08
2023-05-05T15:59:22.169Z,3.33
2023-05-05T16:01:55.044Z,3.10
2023-05-05T16:04:29.435Z,6.18
2023-05-05T16:07:03.308Z,2.75
2023-05-05T16:09:36.438Z,3.00
2023-05-05T16:12:09.347Z,2.63
2023-05-05T16:14:42.230Z,5.38
2023-05-05T16:17:15.140Z,3.20
2023-05-05T16:19:49.445Z,2.95
2023-05-05T16:22:22.277Z,3.13
2023-05-05T16:24:55.104Z,5.47
2023-05-05T16:27:27.957Z,3.22
2023-05-05T16:30:00.803Z,3.05
2023-05-05T16:32:33.690Z,2.65
2023-05-05T16:35:09.236Z,3.35
2023-05-05T16:37:42.425Z,2.78
2023-05-05T16:40:15.507Z,3.13
2023-05-05T16:42:48.383Z,3.30
2023-05-05T16:45:21.496Z,2.92
2023-05-05T16:47:55.468Z,3.63
2023-05-05T16:50:29.789Z,2.72
2023-05-05T16:53:02.624Z,2.63
2023-05-05T16:55:35.616Z,2.70
2023-05-05T16:58:08.498Z,3.58
2023-05-05T17:00:41.365Z,3.65
2023-05-05T17:03:14.365Z,3.10
2023-05-05T17:05:50.403Z,3.47
2023-05-05T17:08:23.365Z,3.08
2023-05-05T17:10:56.252Z,3.03
2023-05-05T17:13:29.336Z,3.10
2023-05-05T17:16:02.277Z,3.05
2023-05-05T17:18:35.173Z,2.92
2023-05-05T17:21:09.341Z,2.70
2023-05-05T17:23:42.184Z,2.88
2023-05-05T17:26:15.015Z,3.40
2023-05-05T17:28:47.878Z,6.07
2023-05-05T17:31:21.073Z,8.30
2023-05-05T17:33:54.013Z,3.05
2023-05-05T17:36:28.300Z,3.17
2023-05-05T17:39:01.165Z,4.03
2023-05-05T17:41:33.984Z,2.85
2023-05-05T17:44:06.801Z,3.50
2023-05-05T17:46:40.364Z,3.67
2023-05-05T17:49:13.199Z,3.88
2023-05-05T17:51:47.416Z,3.75
2023-05-05T17:54:20.379Z,3.70
2023-05-05T17:56:53.240Z,3.00
2023-05-05T17:59:26.250Z,3.33
2023-05-05T18:01:59.551Z,3.90
2023-05-05T18:04:32.824Z,4.28
2023-05-05T18:07:07.574Z,3.70
2023-05-05T18:09:40.453Z,5.25
2023-05-05T18:12:13.332Z,4.88
2023-05-05T18:14:46.258Z,8.32
2023-05-05T18:17:19.072Z,10.25
2023-05-05T18:19:51.948Z,9.00
2023-05-05T18:22:26.164Z,9.02
2023-05-05T18:24:59.791Z,8.98
2023-05-05T18:30:07.720Z,5.07
2023-05-05T18:32:40.719Z,5.63
2023-05-05T18:35:13.624Z,4.50
2023-05-05T18:37:47.838Z,4.65
2023-05-05T18:40:20.907Z,4.45
2023-05-05T18:42:53.712Z,4.35
2023-05-05T18:45:26.751Z,4.50
2023-05-05T18:48:01.363Z,4.40
2023-05-05T18:50:38.226Z,4.68
2023-05-05T18:53:14.796Z,5.55
2023-05-05T18:55:47.926Z,5.38
2023-05-05T18:58:21.344Z,9.98
2023-05-05T19:00:54.780Z,13.15
2023-05-05T19:03:27.838Z,11.77
2023-05-05T19:06:01.525Z,10.73
2023-05-05T19:08:35.976Z,11.82
2023-05-05T19:11:08.895Z,11.30
2023-05-05T19:13:41.963Z,12.45
2023-05-05T19:16:15.079Z,8.25
2023-05-05T19:18:47.952Z,7.82
2023-05-05T19:21:20.877Z,5.80
2023-05-05T19:23:55.094Z,5.55
2023-05-05T19:26:28.200Z,5.45
2023-05-05T19:29:01.181Z,5.65
2023-05-05T19:31:34.152Z,4.93
2023-05-05T19:34:07.105Z,5.28
2023-05-05T19:36:40.017Z,5.57
2023-05-05T19:39:15.878Z,4.97
2023-05-05T19:41:48.849Z,5.35
2023-05-05T19:44:22.844Z,6.07
2023-05-05T19:46:55.745Z,6.68
2023-05-05T19:49:28.702Z,6.03
2023-05-05T19:52:01.942Z,6.30
2023-05-05T19:54:37.204Z,5.93
2023-05-05T19:57:10.398Z,6.82
2023-05-05T19:59:43.268Z,5.93
2023-05-05T20:02:18.129Z,5.40
2023-05-05T20:04:51.142Z,5.10
2023-05-05T20:07:24.122Z,5.13
2023-05-05T20:10:00.463Z,4.90
2023-05-05T20:12:33.430Z,4.90
2023-05-05T20:15:07.370Z,4.70
2023-05-05T20:17:40.481Z,5.07
2023-05-05T20:20:16.181Z,5.78
2023-05-05T20:22:50.212Z,5.00
2023-05-05T20:25:24.460Z,5.28
2023-05-05T20:27:57.412Z,4.70
2023-05-05T20:30:30.227Z,5.15
2023-05-05T20:33:03.277Z,4.73
2023-05-05T20:35:36.322Z,5.40
2023-05-05T20:38:09.823Z,5.72
2023-05-05T20:40:44.034Z,5.32
2023-05-05T20:43:16.980Z,5.15
2023-05-05T20:45:49.796Z,6.05
2023-05-05T20:48:22.669Z,5.07
2023-05-05T20:50:58.872Z,4.73
2023-05-05T20:53:31.800Z,4.90
2023-05-05T20:56:08.965Z,5.20
2023-05-05T20:58:42.420Z,5.05
2023-05-05T21:01:15.403Z,5.35
2023-05-05T21:03:48.298Z,4.75
2023-05-05T21:06:21.175Z,6.53
2023-05-05T21:08:53.969Z,4.70
2023-05-05T21:11:28.248Z,5.07
2023-05-05T21:14:01.133Z,4.75
2023-05-05T21:16:34.058Z,4.65
2023-05-05T21:19:06.984Z,4.75
2023-05-05T21:21:39.813Z,4.50
2023-05-05T21:24:13.883Z,4.63
2023-05-05T21:26:48.107Z,4.97
2023-05-05T21:29:21.052Z,4.75
2023-05-05T21:31:54.276Z,4.60
2023-05-05T21:34:27.162Z,3.83
2023-05-05T21:37:00.149Z,5.03
2023-05-05T21:39:33.589Z,5.82
2023-05-05T21:42:07.882Z,4.82
2023-05-05T21:44:40.721Z,4.75
2023-05-05T21:47:13.526Z,4.70
2023-05-05T21:49:46.435Z,4.87
2023-05-05T21:52:19.350Z,4.85
2023-05-05T21:54:52.188Z,5.15
2023-05-05T21:57:26.648Z,5.20
2023-05-05T21:59:59.530Z,5.43
2023-05-05T22:02:33.373Z,4.77
2023-05-05T22:05:07.300Z,5.30
2023-05-05T22:07:40.749Z,5.72
2023-05-05T22:10:13.598Z,4.90
2023-05-05T22:12:48.027Z,5.40
2023-05-05T22:15:25.365Z,5.57
2023-05-05T22:17:58.481Z,5.57
2023-05-05T22:20:31.449Z,6.10
2023-05-05T22:23:04.276Z,6.40
2023-05-05T22:25:37.156Z,6.03
2023-05-05T22:28:11.521Z,6.90
2023-05-05T22:30:44.395Z,6.97
2023-05-05T22:33:17.555Z,7.33
2023-05-05T22:35:50.385Z,8.20
2023-05-05T22:38:23.314Z,8.63
2023-05-05T22:40:56.138Z,9.63
2023-05-05T22:43:30.474Z,9.60
2023-05-05T22:46:05.924Z,9.75
2023-05-05T22:48:38.831Z,9.52
2023-05-05T22:51:11.670Z,10.05
2023-05-05T22:53:44.562Z,8.70
2023-05-05T22:56:17.743Z,8.23
2023-05-05T22:58:51.982Z,7.85
2023-05-05T23:01:25.074Z,6.68
2023-05-05T23:03:58.019Z,6.70
2023-05-05T23:06:32.163Z,6.37
2023-05-05T23:09:05.153Z,6.30
2023-05-05T23:11:37.943Z,5.35
2023-05-05T23:14:12.165Z,4.72
2023-05-05T23:16:45.013Z,5.78
2023-05-05T23:19:17.930Z,4.75
2023-05-05T23:21:53.651Z,5.07
2023-05-05T23:24:26.741Z,4.35
2023-05-05T23:27:02.177Z,5.10
2023-05-05T23:29:36.401Z,4.80
2023-05-05T23:32:09.409Z,4.57
2023-05-05T23:34:42.357Z,4.82
2023-05-05T23:37:15.318Z,4.20
2023-05-05T23:39:48.166Z,4.38
2023-05-05T23:42:21.209Z,4.82
2023-05-05T23:45:01.017Z,4.15
2023-05-05T23:47:35.097Z,4.55
2023-05-05T23:50:11.525Z,4.07
2023-05-05T23:52:45.343Z,4.10
2023-05-05T23:57:53.020Z,4.40
